Bolsward, Netherlands
Current Conditions -  °F | °C
As of 8:14 PM on Sunday 23 Nov 2014 (Local Time) from EHLW Reporting Station
Light Rain Light Rain  
Wind Chill: 52°   Ceiling: 1500
Heat Index: 52°   Visibility: 6mi
Dew Point: 50°   Wind: 8mph
Humidity: 94%   Direction: 220°SW
Pressure: 29.91"   Gusts: NA
Location:  53.07°N, 5.53°E
Report Text: EHLW 231914Z AUTO 22007KT 9000 -DZRA OVC015 11/10 Q1013 WHT
Loading
Personal Weather Stations






























Interactive Weather Map New forecast layout! Learn more

10-Day Weather Forecast

Advertisements
Track Severe Weather on mobile